Time;durP1;ratioP1;P1;durP2;ratioP2;P2;SDS_P1;SDS_P2;PMS_P1;PMS_P2;Temp;Humidity;BMP_temperature;BMP_pressure;BME280_temperature;BME280_humidity;BME280_pressure;Samples;Min_cycle;Max_cycle;Signal;HPM_P1;HPM_P2
2022/04/01 04:08:06;;;;;;;20.02;17.37;;;;;;;12.99;90.04;98009.25;5604982;31;88820;-57
2022/04/01 04:11:10;;;;;;;20.73;17.52;;;;;;;12.99;89.13;98017.34;5583659;32;33517;-57
2022/04/01 04:14:12;;;;;;;19.25;17.25;;;;;;;13.04;88.92;98017.03;5583568;31;33131;-57
2022/04/01 04:17:24;;;;;;;18.50;16.60;;;;;;;13.09;89.10;98029.44;5583201;32;34273;-57
2022/04/01 04:20:40;;;;;;;18.12;16.27;;;;;;;13.05;88.83;98018.63;5602210;31;33711;-57
2022/04/01 04:23:47;;;;;;;16.60;14.70;;;;;;;13.02;88.87;97994.34;5602870;31;32972;-57
2022/04/01 04:26:53;;;;;;;18.05;16.00;;;;;;;12.98;88.99;97986.19;5603101;31;33365;-57
2022/04/01 04:30:08;;;;;;;;;;;;;;;13.01;89.35;97990.06;5581823;31;33210;-57
2022/04/01 04:33:11;;;;;;;16.05;14.35;;;;;;;13.08;88.36;97984.84;5563972;32;33371;-57
2022/04/01 04:36:19;;;;;;;17.37;15.48;;;;;;;13.03;88.88;97982.44;5580877;31;33887;-57
2022/04/01 04:39:40;;;;;;;16.87;15.18;;;;;;;13.01;88.81;97979.31;5582165;31;33351;-57
2022/04/01 04:42:51;;;;;;;16.40;14.63;;;;;;;13.02;89.21;97992.44;5580996;32;33693;-57
2022/04/01 04:45:56;;;;;;;16.62;14.95;;;;;;;13.17;87.97;97996.16;5596167;31;33489;-57
2022/04/01 04:48:59;;;;;;;17.37;15.33;;;;;;;13.16;88.70;97994.59;5578548;31;34300;-57
2022/04/01 04:52:02;;;;;;;16.17;14.13;;;;;;;13.12;89.39;97994.53;5582882;31;34223;-57
2022/04/01 04:55:09;;;;;;;17.65;15.40;;;;;;;13.40;86.85;98007.00;5595098;31;33880;-57
2022/04/01 04:58:17;;;;;;;19.67;16.65;;;;;;;13.33;86.91;98006.88;5602536;31;34343;-57
2022/04/01 05:01:34;;;;;;;17.98;16.12;;;;;;;13.15;88.56;98001.91;5592527;31;33731;-57
2022/04/01 05:05:04;;;;;;;19.25;16.60;;;;;;;13.10;88.87;98009.47;5577897;31;34141;-57
2022/04/01 05:08:48;;;;;;;18.95;16.23;;;;;;;13.10;89.94;98007.56;5570182;32;34425;-57
2022/04/01 05:12:24;;;;;;;18.50;15.73;;;;;;;13.10;89.79;98006.78;5563101;32;33452;-57
2022/04/01 05:15:30;;;;;;;17.37;15.53;;;;;;;13.21;88.62;98002.41;5597314;31;33243;-57
2022/04/01 05:18:43;;;;;;;17.87;15.98;;;;;;;13.30;88.60;98018.34;5582506;31;34242;-57
2022/04/01 05:22:08;;;;;;;18.70;16.60;;;;;;;13.25;89.46;98024.03;5569618;31;34111;-57
2022/04/01 05:25:16;;;;;;;17.90;16.05;;;;;;;13.42;87.65;98018.19;5567683;31;33188;-57
2022/04/01 05:28:25;;;;;;;17.12;15.43;;;;;;;13.52;86.27;98016.84;5554233;31;34246;-57
2022/04/01 05:31:37;;;;;;;16.65;14.95;;;;;;;13.43;87.29;98019.75;5568590;31;33404;-57
2022/04/01 05:34:44;;;;;;;16.77;15.07;;;;;;;13.28;87.98;98026.78;5567514;31;34476;-58
2022/04/01 05:37:48;;;;;;;17.48;14.63;;;;;;;13.34;87.35;98027.25;5560499;31;33736;-57
2022/04/01 05:40:51;;;;;;;19.05;14.38;;;;;;;13.11;88.16;98022.59;5557892;31;34462;-57
2022/04/01 05:43:54;;;;;;;15.73;13.90;;;;;;;13.06;89.21;98024.78;5549429;32;34166;-57
2022/04/01 05:46:58;;;;;;;17.92;15.48;;;;;;;13.23;87.84;98016.25;5555683;31;34247;-57
2022/04/01 05:50:00;;;;;;;22.27;19.83;;;;;;;13.21;89.10;98018.53;5552075;32;34305;-57
2022/04/01 05:53:07;;;;;;;21.17;18.87;;;;;;;13.25;88.05;98005.19;5555345;32;33206;-57
2022/04/01 05:56:12;;;;;;;26.37;21.00;;;;;;;13.16;88.42;98008.84;5581366;31;33304;-57
2022/04/01 05:59:19;;;;;;;36.88;26.08;;;;;;;13.13;89.53;98012.22;5585840;31;34435;-57
2022/04/01 06:02:27;;;;;;;33.67;26.08;;;;;;;13.15;90.40;98017.28;5568507;32;34385;-57
2022/04/01 06:05:58;;;;;;;31.10;21.85;;;;;;;13.24;88.61;98017.84;5580913;31;33142;-57
2022/04/01 06:09:38;;;;;;;26.60;21.02;;;;;;;13.24;89.19;98022.41;5577726;31;33731;-57
2022/04/01 06:13:00;;;;;;;29.75;23.20;;;;;;;13.21;89.77;98015.84;5571320;31;33466;-57
2022/04/01 06:16:16;;;;;;;29.30;20.17;;;;;;;13.28;89.15;98017.94;5549032;32;33478;-57
2022/04/01 06:19:25;;;;;;;17.05;14.73;;;;;;;13.30;88.71;98021.03;5549917;31;34205;-57
2022/04/01 06:22:31;;;;;;;17.27;14.27;;;;;;;13.28;88.58;98013.34;5565251;31;31871;-57
2022/04/01 06:25:47;;;;;;;14.27;12.60;;;;;;;13.25;89.01;98005.97;5588335;31;33880;-57
2022/04/01 06:29:09;;;;;;;15.00;13.40;;;;;;;13.21;89.20;98015.06;5581455;31;33735;-57
2022/04/01 06:32:56;;;;;;;14.90;13.10;;;;;;;13.22;88.90;98008.56;5556935;31;34400;-57
2022/04/01 06:36:01;;;;;;;18.62;14.25;;;;;;;13.18;88.92;98016.56;5570684;31;33537;-57
2022/04/01 06:39:13;;;;;;;17.73;15.63;;;;;;;13.22;88.78;98022.00;5572354;31;34249;-57
2022/04/01 06:42:22;;;;;;;15.90;12.50;;;;;;;13.19;89.16;98017.34;5563431;31;32999;-58
2022/04/01 06:45:31;;;;;;;19.20;12.47;;;;;;;13.33;87.28;98026.47;5557957;32;34400;-57
2022/04/01 06:48:44;;;;;;;13.73;9.75;;;;;;;13.28;88.17;98026.00;5571785;31;32322;-57
2022/04/01 06:51:50;;;;;;;11.70;9.38;;;;;;;13.25;88.54;98034.78;5580272;31;33406;-57
2022/04/01 06:54:54;;;;;;;11.18;8.32;;;;;;;13.19;88.80;98039.63;5581241;31;35082;-58
2022/04/01 06:57:58;;;;;;;10.18;9.05;;;;;;;13.18;88.39;98035.41;5581721;31;33244;-57
2022/04/01 07:01:00;;;;;;;10.27;8.27;;;;;;;13.24;88.42;98038.56;5567942;31;34082;-57
2022/04/01 07:04:07;;;;;;;9.80;8.20;;;;;;;13.23;87.72;98034.31;5553238;31;34109;-57
2022/04/01 07:07:10;;;;;;;8.68;7.45;;;;;;;13.24;87.92;98033.19;5566705;31;33446;-57
2022/04/01 07:10:14;;;;;;;8.88;7.60;;;;;;;13.40;85.68;98025.84;5562053;32;32943;-57
2022/04/01 07:13:16;;;;;;;9.52;7.47;;;;;;;13.47;84.96;98027.87;5572517;31;34265;-57
2022/04/01 07:16:18;;;;;;;8.75;7.62;;;;;;;13.49;84.99;98021.00;5568402;32;33628;-57
2022/04/01 07:19:21;;;;;;;9.88;7.85;;;;;;;13.37;85.51;98030.00;5567950;32;33684;-57
2022/04/01 07:22:23;;;;;;;9.13;7.30;;;;;;;13.22;86.30;98036.25;5586239;31;34510;-57
2022/04/01 07:25:25;;;;;;;8.90;6.90;;;;;;;13.28;85.73;98031.38;5587412;31;34196;-57
2022/04/01 07:28:28;;;;;;;8.63;6.75;;;;;;;13.33;86.14;98026.47;5575908;31;33416;-57
2022/04/01 07:34:57;;;;;;;7.22;5.57;;;;;;;13.43;84.31;98035.88;5568254;32;34361;-57
2022/04/01 07:37:59;;;;;;;9.75;7.57;;;;;;;13.43;84.22;98037.81;5567399;31;33998;-57
2022/04/01 07:41:01;;;;;;;11.73;7.22;;;;;;;13.29;84.50;98039.09;5567680;32;34230;-57
2022/04/01 07:44:03;;;;;;;10.43;8.13;;;;;;;13.16;86.98;98030.34;5563776;32;34752;-57
2022/04/01 07:47:09;;;;;;;9.63;6.25;;;;;;;13.11;86.49;98037.91;5565908;31;33791;-57
2022/04/01 07:50:13;;;;;;;8.55;5.87;;;;;;;12.89;86.17;98037.50;5566800;32;33623;-57
2022/04/01 07:53:16;;;;;;;8.38;4.55;;;;;;;12.83;86.37;98043.50;5571696;31;33673;-57
2022/04/01 07:56:19;;;;;;;5.53;3.85;;;;;;;12.80;85.17;98034.22;5579036;31;34348;-57
2022/04/01 07:59:23;;;;;;;5.47;3.53;;;;;;;12.75;84.16;98041.78;5567476;32;33630;-57
2022/04/01 08:02:26;;;;;;;4.85;3.60;;;;;;;12.68;84.29;98048.56;5570490;31;33673;-57
2022/04/01 08:05:29;;;;;;;7.20;4.12;;;;;;;12.53;84.29;98053.97;5583203;31;33131;-57
2022/04/01 08:08:32;;;;;;;8.38;4.25;;;;;;;12.45;83.03;98051.13;5563866;32;33662;-57
2022/04/01 08:11:35;;;;;;;6.40;3.80;;;;;;;12.28;82.60;98053.38;5562780;31;33762;-57
2022/04/01 08:14:37;;;;;;;6.30;3.60;;;;;;;12.26;83.94;98067.19;5563782;31;33713;-57
2022/04/01 08:17:40;;;;;;;7.30;4.37;;;;;;;12.17;84.31;98063.88;5547949;32;34306;-57
2022/04/01 08:20:42;;;;;;;7.95;4.45;;;;;;;12.17;85.58;98061.19;5572881;31;34359;-57
2022/04/01 08:23:45;;;;;;;7.93;4.20;;;;;;;12.30;84.41;98065.34;5556089;32;33640;-57
2022/04/01 08:26:48;;;;;;;6.60;4.35;;;;;;;12.06;83.95;98071.69;5562184;31;34291;-57
2022/04/01 08:29:54;;;;;;;5.32;4.12;;;;;;;12.14;84.96;98076.09;5552139;31;33601;-57
2022/04/01 08:32:57;;;;;;;5.68;4.05;;;;;;;12.17;84.22;98077.31;5566452;31;34335;-57
2022/04/01 08:35:59;;;;;;;6.87;3.83;;;;;;;12.18;84.14;98076.94;5549555;32;34289;-57
2022/04/01 08:39:02;;;;;;;6.87;3.65;;;;;;;12.16;83.60;98086.50;5556735;31;34199;-57
2022/04/01 08:42:05;;;;;;;4.37;3.28;;;;;;;12.17;83.76;98091.50;5566461;32;33713;-57
2022/04/01 08:45:07;;;;;;;6.87;3.83;;;;;;;12.06;83.36;98093.16;5567059;32;33737;-57
2022/04/01 08:48:11;;;;;;;6.12;4.18;;;;;;;12.07;84.21;98099.31;5565165;31;33278;-57
2022/04/01 08:51:14;;;;;;;7.07;3.35;;;;;;;12.05;83.69;98106.91;5565343;31;33972;-57
2022/04/01 08:54:16;;;;;;;5.75;3.03;;;;;;;12.01;84.25;98111.44;5556581;32;33542;-57
2022/04/01 08:57:19;;;;;;;5.47;3.40;;;;;;;11.96;84.42;98107.09;5555854;31;33776;-57
2022/04/01 09:00:22;;;;;;;4.25;2.87;;;;;;;12.02;84.61;98111.09;5568446;31;33857;-57
2022/04/01 09:03:26;;;;;;;5.30;3.12;;;;;;;11.98;85.28;98110.22;5551307;32;33651;-57
2022/04/01 09:06:41;;;;;;;5.57;2.95;;;;;;;12.01;84.43;98106.06;5567389;31;33770;-57
2022/04/01 09:09:43;;;;;;;3.62;2.55;;;;;;;11.87;84.23;98111.84;5567934;32;33630;-57
2022/04/01 09:12:51;;;;;;;3.37;2.60;;;;;;;11.98;84.75;98107.53;5564915;31;33570;-57
2022/04/01 09:15:54;;;;;;;5.90;3.30;;;;;;;12.02;85.69;98115.66;5554534;32;34185;-57
2022/04/01 09:18:58;;;;;;;5.00;3.03;;;;;;;11.97;85.23;98116.72;5554914;31;33507;-57
2022/04/01 09:22:19;;;;;;;7.12;3.53;;;;;;;12.08;84.90;98116.97;5557928;31;33119;-57
2022/04/01 09:25:22;;;;;;;3.62;3.12;;;;;;;12.17;84.54;98113.00;5563414;31;33724;-57
2022/04/01 09:28:29;;;;;;;3.47;2.90;;;;;;;12.23;84.66;98110.84;5549863;32;33645;-57
2022/04/01 09:31:33;;;;;;;4.28;2.83;;;;;;;12.27;85.17;98121.69;5559006;31;33744;-57
2022/04/01 09:34:41;;;;;;;3.78;2.87;;;;;;;12.22;84.13;98117.34;5558026;32;34085;-57
2022/04/01 09:37:47;;;;;;;3.90;2.90;;;;;;;12.26;83.42;98117.44;5564826;32;33889;-57
2022/04/01 09:40:50;;;;;;;3.80;3.08;;;;;;;12.29;82.80;98120.22;5565759;31;32213;-57
2022/04/01 09:44:04;;;;;;;4.12;2.72;;;;;;;12.24;83.52;98125.84;5555439;32;33741;-57
2022/04/01 09:47:07;;;;;;;2.95;2.45;;;;;;;12.16;81.57;98122.19;5561394;32;33845;-58
2022/04/01 09:50:13;;;;;;;3.85;2.87;;;;;;;12.08;83.35;98127.72;5550121;31;33785;-57
2022/04/01 09:53:21;;;;;;;4.90;2.90;;;;;;;12.01;82.39;98127.53;5552662;32;33995;-57
2022/04/01 09:56:40;;;;;;;3.15;2.80;;;;;;;11.94;82.64;98128.91;5549431;32;33701;-57
2022/04/01 09:59:44;;;;;;;4.57;2.78;;;;;;;11.94;81.00;98128.91;5552023;31;33775;-57
2022/04/01 10:02:46;;;;;;;4.00;2.85;;;;;;;11.86;82.12;98131.78;5549770;32;34004;-57
2022/04/01 10:05:50;;;;;;;3.83;2.78;;;;;;;11.89;82.76;98131.09;5550193;32;33674;-57
2022/04/01 10:08:54;;;;;;;5.65;3.20;;;;;;;11.96;83.79;98134.72;5555751;31;33382;-57
2022/04/01 10:12:00;;;;;;;7.62;2.83;;;;;;;11.93;84.75;98137.31;5553100;31;34419;-57
2022/04/01 10:15:02;;;;;;;4.05;2.75;;;;;;;12.08;83.89;98136.56;5551650;32;33703;-57
2022/04/01 10:18:26;;;;;;;5.03;3.17;;;;;;;12.03;82.76;98139.50;5564155;31;32155;-57
2022/04/01 10:21:30;;;;;;;4.28;2.85;;;;;;;11.95;84.09;98137.75;5557257;32;34308;-57
2022/04/01 10:24:49;;;;;;;5.85;3.08;;;;;;;11.99;83.49;98152.06;5557278;31;34146;-57
2022/04/01 10:27:53;;;;;;;7.18;3.25;;;;;;;12.11;83.42;98151.19;5561908;32;33691;-57
2022/04/01 10:31:02;;;;;;;5.90;3.42;;;;;;;11.98;81.68;98159.31;5569619;31;33126;-57
2022/04/01 10:34:22;;;;;;;7.90;4.05;;;;;;;12.00;81.87;98161.66;5562024;31;33925;-57
2022/04/01 10:37:30;;;;;;;7.28;4.30;;;;;;;11.85;80.36;98165.09;5556369;32;32126;-57
2022/04/01 10:40:35;;;;;;;9.00;4.93;;;;;;;11.80;80.84;98176.84;5566830;31;33625;-57
2022/04/01 10:43:43;;;;;;;6.00;4.35;;;;;;;11.69;79.94;98176.53;5556419;31;33764;-57
2022/04/01 10:47:05;;;;;;;6.93;4.68;;;;;;;11.47;80.65;98179.72;5561487;31;34339;-57
2022/04/01 10:53:46;;;;;;;7.10;4.80;;;;;;;11.35;80.60;98177.84;5555436;32;34502;-57
2022/04/01 10:57:05;;;;;;;5.78;4.60;;;;;;;11.38;81.86;98185.22;5555925;31;33696;-57
2022/04/01 11:00:14;;;;;;;5.80;4.07;;;;;;;11.20;81.99;98182.03;5558962;31;33955;-57
2022/04/01 11:03:24;;;;;;;7.22;4.55;;;;;;;11.18;81.75;98189.59;5566663;32;33658;-57
2022/04/01 11:06:27;;;;;;;5.82;4.40;;;;;;;11.27;81.99;98190.28;5563104;31;34336;-57
2022/04/01 11:09:42;;;;;;;6.47;4.97;;;;;;;11.39;82.68;98194.84;5565560;31;33307;-57
2022/04/01 11:12:51;;;;;;;7.12;4.93;;;;;;;11.27;81.91;98205.59;5559646;32;33693;-57
2022/04/01 11:16:12;;;;;;;6.07;4.95;;;;;;;11.32;80.78;98199.19;5563164;31;33613;-57
2022/04/01 11:19:27;;;;;;;7.50;5.87;;;;;;;11.13;80.65;98200.59;5562765;32;33713;-57
2022/04/01 11:22:36;;;;;;;7.03;5.22;;;;;;;11.25;82.82;98207.81;5551191;32;33658;-57
2022/04/01 11:25:44;;;;;;;9.77;6.43;;;;;;;11.20;80.02;98206.16;5560409;31;33757;-57
2022/04/01 11:28:47;;;;;;;10.00;6.60;;;;;;;11.06;81.44;98200.38;5557442;32;34142;-57
2022/04/01 11:32:01;;;;;;;8.95;7.50;;;;;;;11.07;81.65;98201.16;5563316;32;34367;-57
2022/04/01 11:35:05;;;;;;;10.85;9.15;;;;;;;10.98;81.54;98201.25;5565164;32;33853;-57
2022/04/01 11:38:13;;;;;;;12.65;9.93;;;;;;;10.91;80.92;98204.50;5555653;32;33801;-57
2022/04/01 11:41:17;;;;;;;10.63;8.70;;;;;;;10.80;82.87;98206.84;5552857;31;34343;-57
2022/04/01 11:44:19;;;;;;;10.65;8.35;;;;;;;10.93;80.11;98213.00;5556951;32;33755;-55
2022/04/01 11:47:32;;;;;;;9.63;7.80;;;;;;;10.97;81.78;98207.72;5547433;32;33717;-55
2022/04/01 11:50:34;;;;;;;9.73;7.65;;;;;;;11.05;80.96;98206.81;5550694;32;34229;-55
2022/04/01 11:53:43;;;;;;;11.55;8.80;;;;;;;11.11;80.60;98205.50;5552089;31;33324;-55
2022/04/01 11:56:50;;;;;;;10.10;7.50;;;;;;;11.03;82.01;98209.09;5552733;31;33645;-55
2022/04/01 11:59:52;;;;;;;10.98;8.35;;;;;;;11.13;81.61;98202.50;5564973;31;33693;-55
2022/04/01 12:02:55;;;;;;;9.85;7.47;;;;;;;11.23;81.45;98200.13;5567421;32;34000;-55
2022/04/01 12:08:41;;;;;;;9.38;6.30;;;;;;;11.31;83.03;98197.66;5551731;32;33659;-55
2022/04/01 12:09:27;;;;;;;8.43;6.37;;;;;;;11.32;80.26;98199.97;5558582;32;33759;-55
2022/04/01 12:12:31;;;;;;;7.62;6.53;;;;;;;11.43;81.13;98195.72;5567787;31;34352;-55
2022/04/01 12:15:39;;;;;;;6.90;5.62;;;;;;;11.42;79.19;98204.09;5587632;31;33333;-54
2022/04/01 12:18:49;;;;;;;8.50;6.80;;;;;;;11.61;79.23;98204.28;5579822;31;33364;-55
2022/04/01 12:21:55;;;;;;;9.55;7.18;;;;;;;11.57;78.80;98197.25;5567381;31;33662;-55
2022/04/01 12:24:58;;;;;;;8.00;7.03;;;;;;;11.33;80.04;98208.84;5564789;31;33890;-55
2022/04/01 12:28:12;;;;;;;8.55;6.55;;;;;;;11.36;81.81;98213.53;5568012;32;33820;-55
2022/04/01 12:31:16;;;;;;;8.57;6.43;;;;;;;11.33;79.42;98222.25;5569442;32;33594;-55
2022/04/01 12:34:19;;;;;;;9.40;7.37;;;;;;;11.48;78.14;98226.91;5550181;32;33615;-55
2022/04/01 12:37:22;;;;;;;7.60;6.78;;;;;;;11.55;80.76;98232.47;5566657;31;33880;-55
2022/04/01 12:40:24;;;;;;;9.30;8.07;;;;;;;11.74;82.19;98231.88;5589495;31;34266;-55
2022/04/01 12:43:38;;;;;;;9.27;8.10;;;;;;;11.84;79.17;98234.09;5589940;31;33881;-55
2022/04/01 12:46:47;;;;;;;8.23;7.40;;;;;;;11.67;78.11;98237.81;5578483;31;33866;-55
2022/04/01 12:49:49;;;;;;;10.07;7.60;;;;;;;11.54;76.77;98233.59;5566064;32;33660;-55
2022/04/01 12:53:07;;;;;;;9.43;7.97;;;;;;;11.47;77.86;98244.12;5568152;32;34336;-55
2022/04/01 12:56:18;;;;;;;8.57;7.68;;;;;;;11.49;77.07;98236.53;5570231;32;33666;-55
2022/04/01 12:59:22;;;;;;;9.70;8.40;;;;;;;11.49;78.55;98239.22;5569754;32;33771;-55
2022/04/01 13:02:25;;;;;;;8.82;7.80;;;;;;;11.55;77.59;98237.06;5570435;32;34288;-54
2022/04/01 13:05:27;;;;;;;10.27;7.78;;;;;;;11.40;77.26;98243.91;5563712;32;34244;-55
2022/04/01 13:08:31;;;;;;;8.88;6.85;;;;;;;11.32;74.66;98247.47;5550423;32;33786;-55
2022/04/01 13:11:38;;;;;;;8.77;7.43;;;;;;;11.31;76.24;98253.97;5551303;32;33742;-55
2022/04/01 13:14:40;;;;;;;9.48;8.43;;;;;;;11.22;75.52;98262.91;5550490;32;33805;-55
2022/04/01 13:17:50;;;;;;;8.77;7.87;;;;;;;11.19;76.93;98266.28;5550078;32;33787;-55
2022/04/01 13:20:53;;;;;;;10.15;8.43;;;;;;;11.25;75.23;98277.56;5555113;32;34407;-55
2022/04/01 13:23:55;;;;;;;10.05;8.40;;;;;;;11.19;75.10;98274.31;5570130;32;34325;-54
2022/04/01 13:26:57;;;;;;;10.65;9.35;;;;;;;10.98;73.18;98284.34;5561094;32;33709;-55
2022/04/01 13:30:01;;;;;;;12.73;11.12;;;;;;;10.95;76.48;98277.75;5550126;32;33805;-55
2022/04/01 13:33:04;;;;;;;15.57;13.55;;;;;;;10.85;75.25;98285.44;5553766;31;34069;-55
2022/04/01 13:36:06;;;;;;;16.02;13.32;;;;;;;10.91;77.44;98282.22;5550325;32;34786;-55
2022/04/01 13:39:09;;;;;;;13.88;11.82;;;;;;;10.97;75.01;98283.56;5559727;32;33822;-55
2022/04/01 13:42:12;;;;;;;13.98;12.50;;;;;;;10.91;73.11;98282.22;5560191;31;34270;-55
2022/04/01 13:45:14;;;;;;;14.05;12.50;;;;;;;10.96;75.84;98294.63;5569576;32;34330;-55
2022/04/01 13:48:16;;;;;;;15.02;13.20;;;;;;;10.96;75.18;98278.53;5569779;32;33696;-55
2022/04/01 13:51:19;;;;;;;15.40;13.65;;;;;;;10.87;74.94;98278.66;5568831;32;33840;-54
2022/04/01 13:54:22;;;;;;;16.37;14.77;;;;;;;10.96;74.93;98276.66;5569552;32;33361;-55
2022/04/01 13:57:24;;;;;;;18.42;16.48;;;;;;;10.67;74.98;98284.88;5569503;32;34289;-54
2022/04/01 14:00:26;;;;;;;18.42;15.32;;;;;;;10.51;74.80;98280.13;5569497;32;33686;-55
2022/04/01 14:03:30;;;;;;;18.42;15.73;;;;;;;10.63;74.14;98283.94;5569422;32;33789;-55
2022/04/01 14:06:33;;;;;;;18.70;16.20;;;;;;;10.69;76.45;98285.31;5561247;32;33651;-54
2022/04/01 14:09:38;;;;;;;17.37;15.65;;;;;;;10.54;73.59;98302.81;5550053;32;33685;-54
2022/04/01 14:12:57;;;;;;;17.92;16.02;;;;;;;10.55;75.90;98293.66;5549962;32;33691;-55
2022/04/01 14:16:00;;;;;;;18.20;16.40;;;;;;;10.69;73.81;98307.53;5550103;32;34480;-55
2022/04/01 14:19:06;;;;;;;20.05;17.83;;;;;;;10.58;74.19;98320.56;5549719;32;34385;-54
2022/04/01 14:22:13;;;;;;;19.85;17.62;;;;;;;10.50;72.98;98320.66;5549995;32;33864;-55
2022/04/01 14:25:15;;;;;;;19.42;17.52;;;;;;;10.31;73.63;98324.59;5561379;31;33795;-55
2022/04/01 14:28:17;;;;;;;20.65;18.55;;;;;;;10.41;73.42;98328.75;5570193;31;33650;-54
2022/04/01 14:31:19;;;;;;;21.05;18.20;;;;;;;10.38;74.07;98342.03;5561357;32;34367;-55
2022/04/01 14:34:22;;;;;;;20.33;18.20;;;;;;;10.29;74.22;98336.72;5550164;32;34482;-54
2022/04/01 14:37:24;;;;;;;19.80;17.60;;;;;;;10.55;72.09;98339.97;5551708;32;33671;-55
2022/04/01 14:40:27;;;;;;;22.30;18.35;;;;;;;10.43;73.38;98347.97;5576299;31;34333;-55
2022/04/01 14:43:29;;;;;;;19.98;17.62;;;;;;;10.57;73.33;98353.84;5562836;31;33662;-55
2022/04/01 14:46:31;;;;;;;18.42;16.45;;;;;;;10.59;71.61;98361.53;5565187;31;33660;-54
2022/04/01 14:49:36;;;;;;;18.27;16.48;;;;;;;10.56;70.95;98357.63;5548995;32;34121;-54
2022/04/01 14:52:38;;;;;;;19.30;17.33;;;;;;;10.61;69.54;98363.88;5549262;32;34375;-55
2022/04/01 14:55:42;;;;;;;19.92;17.92;;;;;;;10.60;70.62;98363.13;5549684;32;34437;-55
2022/04/01 14:58:44;;;;;;;19.98;17.98;;;;;;;10.43;71.57;98358.69;5549300;32;34342;-55
2022/04/01 15:01:46;;;;;;;20.58;18.65;;;;;;;10.20;71.93;98360.09;5549715;32;33674;-55
2022/04/01 15:04:49;;;;;;;20.80;18.10;;;;;;;10.42;72.43;98359.78;5549731;32;33646;-55
2022/04/01 15:07:52;;;;;;;19.17;17.27;;;;;;;10.52;71.20;98354.03;5549725;32;33760;-54
2022/04/01 15:10:54;;;;;;;20.37;18.48;;;;;;;10.42;70.53;98356.31;5549611;32;33709;-55
2022/04/01 15:13:56;;;;;;;19.42;17.62;;;;;;;10.51;71.39;98362.41;5549557;32;34462;-55
2022/04/01 15:16:59;;;;;;;20.20;17.95;;;;;;;10.52;71.26;98361.28;5549301;32;34596;-55
2022/04/01 15:20:03;;;;;;;20.27;18.37;;;;;;;10.55;70.11;98365.97;5549043;32;34276;-54
2022/04/01 15:23:06;;;;;;;23.35;20.12;;;;;;;10.43;70.94;98376.63;5549498;32;34469;-55
2022/04/01 15:26:08;;;;;;;44.78;39.88;;;;;;;10.56;71.47;98380.94;5549462;32;34296;-55
2022/04/01 15:29:11;;;;;;;23.40;21.05;;;;;;;10.54;71.81;98385.84;5549121;32;33001;-55
